CXA567 CYYC-CYEV
Flight info
| Callsign | CXA567 |
|---|---|
| Flight time | 3h 53m |
| Altitude | 43000 |
| Route | SETGA DCT YPE DCT YFS DCT YWY DCT YVQ DCT YGH |
| Aircraft | C750/M-SDGHIM3RWXY/S |
Departure
| Time | 2026-04-29 10:10 |
|---|---|
| Airport | Calgary International Airport (CYYC) |
Arrival
| Time | 2026-04-29 14:03 |
|---|---|
| Airport | Inuvik Mike Zubko Airport (CYEV) |
| Time | Latitude | Longitude | Altitude | Speed | Heading |
|---|---|---|---|---|---|
| 2026-04-29 10:06 | 51.09948 | -114.02685 | 3536 ft | 0 kts | 0° |
| 2026-04-29 10:08 | 51.09949 | -114.02685 | 3536 ft | 1 kts | 0° |
| 2026-04-29 10:08 | 51.09950 | -114.02620 | 3536 ft | 11 kts | 148° |
| 2026-04-29 10:09 | 51.09829 | -114.02535 | 3536 ft | 22 kts | 124° |
| 2026-04-29 10:09 | 51.09747 | -114.02301 | 3536 ft | 27 kts | 118° |
| 2026-04-29 10:09 | 51.09795 | -114.02138 | 3537 ft | 24 kts | 2° |
| 2026-04-29 10:09 | 51.10187 | -114.02147 | 3537 ft | 101 kts | 0° |
| 2026-04-29 10:10 | 51.11142 | -114.02132 | 3733 ft | 162 kts | 1° |
| 2026-04-29 10:10 | 51.12304 | -114.02089 | 4668 ft | 178 kts | 356° |
| 2026-04-29 10:10 | 51.13460 | -114.02762 | 5706 ft | 194 kts | 320° |
| 2026-04-29 10:10 | 51.14183 | -114.04636 | 6745 ft | 217 kts | 289° |
| 2026-04-29 10:11 | 51.14578 | -114.06969 | 7821 ft | 229 kts | 289° |
| 2026-04-29 10:11 | 51.15061 | -114.09438 | 8843 ft | 241 kts | 296° |
| 2026-04-29 10:11 | 51.15980 | -114.11656 | 9816 ft | 251 kts | 313° |
| 2026-04-29 10:11 | 51.17177 | -114.13729 | 10724 ft | 266 kts | 316° |
| 2026-04-29 10:12 | 51.18525 | -114.15885 | 11555 ft | 283 kts | 317° |
| 2026-04-29 10:12 | 51.19950 | -114.18102 | 12395 ft | 298 kts | 318° |
| 2026-04-29 10:12 | 51.21445 | -114.20428 | 13451 ft | 304 kts | 318° |
| 2026-04-29 10:12 | 51.22960 | -114.22775 | 14566 ft | 307 kts | 318° |
| 2026-04-29 10:13 | 51.24484 | -114.25143 | 15557 ft | 312 kts | 319° |
| 2026-04-29 10:13 | 51.26028 | -114.27537 | 16495 ft | 317 kts | 319° |
| 2026-04-29 10:13 | 51.26561 | -114.28365 | 16818 ft | 319 kts | 319° |
| 2026-04-29 10:13 | 51.28007 | -114.30567 | 16992 ft | 335 kts | 316° |
| 2026-04-29 10:14 | 51.29680 | -114.33207 | 17622 ft | 349 kts | 315° |
| 2026-04-29 10:14 | 51.31418 | -114.35919 | 18472 ft | 354 kts | 316° |
| 2026-04-29 10:14 | 51.33171 | -114.38656 | 19354 ft | 357 kts | 316° |
| 2026-04-29 10:14 | 51.34948 | -114.41431 | 20195 ft | 361 kts | 316° |
| 2026-04-29 10:15 | 51.36760 | -114.44262 | 20995 ft | 366 kts | 316° |
| 2026-04-29 10:15 | 51.38581 | -114.47114 | 21758 ft | 370 kts | 316° |
| 2026-04-29 10:15 | 51.40402 | -114.49967 | 22489 ft | 375 kts | 316° |
| 2026-04-29 10:15 | 51.42263 | -114.52889 | 23206 ft | 379 kts | 316° |
| 2026-04-29 10:16 | 51.44138 | -114.55832 | 23897 ft | 383 kts | 316° |
| 2026-04-29 10:16 | 51.46037 | -114.58820 | 24569 ft | 387 kts | 316° |
| 2026-04-29 10:16 | 51.47979 | -114.61873 | 25227 ft | 391 kts | 316° |
| 2026-04-29 10:16 | 51.49908 | -114.64913 | 25855 ft | 395 kts | 316° |
| 2026-04-29 10:17 | 51.51868 | -114.68005 | 26468 ft | 399 kts | 315° |
| 2026-04-29 10:17 | 51.53849 | -114.71140 | 27064 ft | 403 kts | 315° |
| 2026-04-29 10:17 | 51.55852 | -114.74309 | 27643 ft | 406 kts | 315° |
| 2026-04-29 10:17 | 51.57850 | -114.77477 | 28198 ft | 410 kts | 315° |
| 2026-04-29 10:18 | 51.59875 | -114.80688 | 28740 ft | 413 kts | 315° |
| 2026-04-29 10:18 | 51.61920 | -114.83939 | 29268 ft | 417 kts | 315° |
| 2026-04-29 10:18 | 51.63979 | -114.87216 | 29780 ft | 420 kts | 315° |
| 2026-04-29 10:18 | 51.66059 | -114.90529 | 30278 ft | 424 kts | 315° |
| 2026-04-29 10:19 | 51.68152 | -114.93867 | 30763 ft | 427 kts | 315° |
| 2026-04-29 10:19 | 51.70274 | -114.97260 | 31237 ft | 430 kts | 315° |
| 2026-04-29 10:19 | 51.72372 | -115.00616 | 31690 ft | 433 kts | 315° |
| 2026-04-29 10:19 | 51.74512 | -115.04046 | 32136 ft | 436 kts | 315° |
| 2026-04-29 10:20 | 51.76671 | -115.07507 | 32571 ft | 439 kts | 315° |
| 2026-04-29 10:20 | 51.78830 | -115.10976 | 32993 ft | 442 kts | 315° |
| 2026-04-29 10:20 | 51.81015 | -115.14493 | 33406 ft | 445 kts | 315° |
| 2026-04-29 10:20 | 51.83217 | -115.18043 | 33807 ft | 448 kts | 315° |
| 2026-04-29 10:21 | 51.85507 | -115.21424 | 34630 ft | 452 kts | 325° |
| 2026-04-29 10:21 | 51.88362 | -115.23551 | 34971 ft | 451 kts | 343° |
| 2026-04-29 10:21 | 51.91355 | -115.24938 | 35373 ft | 449 kts | 343° |
| 2026-04-29 10:21 | 51.94358 | -115.26367 | 35730 ft | 449 kts | 344° |
| 2026-04-29 10:22 | 51.97365 | -115.27791 | 36087 ft | 449 kts | 344° |
| 2026-04-29 10:22 | 52.00351 | -115.29208 | 36515 ft | 449 kts | 344° |
| 2026-04-29 10:22 | 52.03321 | -115.30621 | 36944 ft | 449 kts | 344° |
| 2026-04-29 10:22 | 52.06323 | -115.32050 | 37374 ft | 449 kts | 344° |
| 2026-04-29 10:23 | 52.09304 | -115.33472 | 37791 ft | 449 kts | 344° |
| 2026-04-29 10:23 | 52.12313 | -115.34911 | 38199 ft | 449 kts | 344° |
| 2026-04-29 10:23 | 52.15285 | -115.36332 | 38588 ft | 449 kts | 344° |
| 2026-04-29 10:23 | 52.18259 | -115.37755 | 38964 ft | 449 kts | 344° |
| 2026-04-29 10:24 | 52.21236 | -115.39184 | 39321 ft | 449 kts | 344° |
| 2026-04-29 10:24 | 52.24237 | -115.40625 | 39667 ft | 449 kts | 344° |
| 2026-04-29 10:24 | 52.27190 | -115.42045 | 39995 ft | 449 kts | 344° |
| 2026-04-29 10:24 | 52.30163 | -115.43476 | 40316 ft | 449 kts | 344° |
| 2026-04-29 10:25 | 52.33164 | -115.44924 | 40629 ft | 448 kts | 344° |
| 2026-04-29 10:25 | 52.36156 | -115.46368 | 40932 ft | 448 kts | 344° |
| 2026-04-29 10:25 | 52.39116 | -115.47800 | 41222 ft | 448 kts | 344° |
| 2026-04-29 10:25 | 52.42105 | -115.49249 | 41506 ft | 448 kts | 344° |
| 2026-04-29 10:26 | 52.45068 | -115.50685 | 41779 ft | 448 kts | 344° |
| 2026-04-29 10:26 | 52.48040 | -115.52129 | 42045 ft | 448 kts | 344° |
| 2026-04-29 10:26 | 52.51021 | -115.53578 | 42303 ft | 448 kts | 344° |
| 2026-04-29 10:26 | 52.54023 | -115.55042 | 42555 ft | 448 kts | 343° |
| 2026-04-29 10:27 | 52.59981 | -115.57950 | 42983 ft | 450 kts | 344° |
| 2026-04-29 10:27 | 52.63004 | -115.59428 | 42996 ft | 455 kts | 344° |
| 2026-04-29 10:28 | 52.69102 | -115.62418 | 43006 ft | 466 kts | 344° |
| 2026-04-29 10:28 | 52.75361 | -115.65496 | 43005 ft | 477 kts | 343° |
| 2026-04-29 10:29 | 52.81754 | -115.68649 | 43005 ft | 487 kts | 343° |
| 2026-04-29 10:29 | 52.88269 | -115.71872 | 43004 ft | 496 kts | 343° |
| 2026-04-29 10:30 | 52.94938 | -115.75180 | 43004 ft | 505 kts | 343° |
| 2026-04-29 10:30 | 53.01684 | -115.78541 | 43001 ft | 512 kts | 343° |
| 2026-04-29 10:31 | 53.08531 | -115.81961 | 43000 ft | 516 kts | 343° |
| 2026-04-29 10:31 | 53.15390 | -115.85398 | 43001 ft | 516 kts | 343° |
| 2026-04-29 10:32 | 53.22216 | -115.88832 | 43000 ft | 514 kts | 343° |
| 2026-04-29 10:32 | 53.29012 | -115.92260 | 43000 ft | 512 kts | 343° |
| 2026-04-29 10:33 | 53.35808 | -115.95700 | 43000 ft | 511 kts | 343° |
| 2026-04-29 10:33 | 53.42588 | -115.99143 | 43000 ft | 510 kts | 343° |
| 2026-04-29 10:34 | 53.49326 | -116.02577 | 43000 ft | 509 kts | 343° |
| 2026-04-29 10:34 | 53.56106 | -116.06046 | 43000 ft | 509 kts | 343° |
| 2026-04-29 10:35 | 53.62842 | -116.09501 | 43000 ft | 509 kts | 343° |
| 2026-04-29 10:35 | 53.69584 | -116.12972 | 43000 ft | 509 kts | 343° |
| 2026-04-29 10:36 | 53.76320 | -116.16450 | 43000 ft | 508 kts | 343° |
| 2026-04-29 10:36 | 53.83022 | -116.19922 | 43000 ft | 507 kts | 343° |
| 2026-04-29 10:37 | 53.89748 | -116.23419 | 43000 ft | 506 kts | 343° |
| 2026-04-29 10:37 | 53.96458 | -116.26923 | 43000 ft | 506 kts | 343° |
| 2026-04-29 10:38 | 54.03125 | -116.30411 | 43000 ft | 505 kts | 343° |
| 2026-04-29 10:38 | 54.09833 | -116.33934 | 43000 ft | 505 kts | 343° |
| 2026-04-29 10:39 | 54.16505 | -116.37451 | 43000 ft | 505 kts | 343° |
| 2026-04-29 10:39 | 54.23195 | -116.40987 | 43000 ft | 505 kts | 343° |
| 2026-04-29 10:40 | 54.29860 | -116.44524 | 43000 ft | 505 kts | 343° |
| 2026-04-29 10:40 | 54.36578 | -116.48101 | 43000 ft | 505 kts | 343° |
| 2026-04-29 10:41 | 54.43240 | -116.51662 | 43000 ft | 505 kts | 343° |
| 2026-04-29 10:41 | 54.49925 | -116.55244 | 43000 ft | 505 kts | 343° |
| 2026-04-29 10:42 | 54.56599 | -116.58833 | 43000 ft | 505 kts | 343° |
| 2026-04-29 10:42 | 54.63308 | -116.62455 | 43000 ft | 505 kts | 343° |
| 2026-04-29 10:43 | 54.69970 | -116.66064 | 43000 ft | 505 kts | 342° |
| 2026-04-29 10:43 | 54.76649 | -116.69694 | 43000 ft | 505 kts | 342° |
| 2026-04-29 10:44 | 54.83344 | -116.73344 | 43000 ft | 505 kts | 342° |
| 2026-04-29 10:44 | 54.89996 | -116.76985 | 43000 ft | 505 kts | 342° |
| 2026-04-29 10:45 | 54.96654 | -116.80640 | 43000 ft | 505 kts | 342° |
| 2026-04-29 10:45 | 55.03342 | -116.84327 | 43000 ft | 505 kts | 342° |
| 2026-04-29 10:46 | 55.10027 | -116.88023 | 43000 ft | 505 kts | 342° |
| 2026-04-29 10:46 | 55.16685 | -116.91718 | 43000 ft | 505 kts | 342° |
| 2026-04-29 10:47 | 55.23333 | -116.95422 | 43000 ft | 505 kts | 342° |
| 2026-04-29 10:47 | 55.30004 | -116.99150 | 43000 ft | 505 kts | 342° |
| 2026-04-29 10:48 | 55.36670 | -117.02888 | 43000 ft | 505 kts | 342° |
| 2026-04-29 10:48 | 55.43356 | -117.06651 | 43000 ft | 505 kts | 342° |
| 2026-04-29 10:49 | 55.50028 | -117.10420 | 43000 ft | 505 kts | 342° |
| 2026-04-29 10:49 | 55.56696 | -117.14199 | 43000 ft | 505 kts | 342° |
| 2026-04-29 10:50 | 55.63366 | -117.17996 | 43000 ft | 505 kts | 342° |
| 2026-04-29 10:50 | 55.70016 | -117.21791 | 43000 ft | 505 kts | 342° |
| 2026-04-29 10:51 | 55.76687 | -117.25614 | 43000 ft | 505 kts | 342° |
| 2026-04-29 10:51 | 55.83316 | -117.29426 | 43000 ft | 505 kts | 342° |
| 2026-04-29 10:52 | 55.89994 | -117.33281 | 43000 ft | 505 kts | 342° |
| 2026-04-29 10:52 | 55.96648 | -117.37134 | 43000 ft | 506 kts | 342° |
| 2026-04-29 10:53 | 56.03315 | -117.41007 | 43000 ft | 506 kts | 342° |
| 2026-04-29 10:53 | 56.09957 | -117.44885 | 43000 ft | 506 kts | 342° |
| 2026-04-29 10:54 | 56.16650 | -117.48802 | 43000 ft | 506 kts | 342° |
| 2026-04-29 10:54 | 56.23290 | -117.52671 | 43000 ft | 506 kts | 342° |
| 2026-04-29 10:55 | 56.29960 | -117.56508 | 43000 ft | 506 kts | 342° |
| 2026-04-29 10:55 | 56.36669 | -117.60386 | 43000 ft | 506 kts | 342° |
| 2026-04-29 10:56 | 56.43335 | -117.64251 | 43000 ft | 506 kts | 342° |
| 2026-04-29 10:56 | 56.50000 | -117.68131 | 43000 ft | 506 kts | 342° |
| 2026-04-29 10:57 | 56.56650 | -117.72015 | 43000 ft | 506 kts | 342° |
| 2026-04-29 10:57 | 56.63340 | -117.75939 | 43000 ft | 506 kts | 342° |
| 2026-04-29 10:58 | 56.70007 | -117.79864 | 43000 ft | 506 kts | 342° |
| 2026-04-29 10:58 | 56.76699 | -117.83817 | 43000 ft | 506 kts | 342° |
| 2026-04-29 10:59 | 56.83326 | -117.87748 | 43000 ft | 506 kts | 342° |
| 2026-04-29 10:59 | 56.90029 | -117.91738 | 43000 ft | 506 kts | 342° |
| 2026-04-29 11:00 | 56.96666 | -117.95702 | 43000 ft | 506 kts | 342° |
| 2026-04-29 11:00 | 57.03369 | -117.99726 | 43000 ft | 506 kts | 342° |
| 2026-04-29 11:01 | 57.09995 | -118.03710 | 43000 ft | 506 kts | 342° |
| 2026-04-29 11:01 | 57.16671 | -118.07745 | 43000 ft | 506 kts | 342° |
| 2026-04-29 11:02 | 57.23344 | -118.11794 | 43000 ft | 506 kts | 342° |
| 2026-04-29 11:02 | 57.30008 | -118.15851 | 43000 ft | 506 kts | 342° |
| 2026-04-29 11:03 | 57.36706 | -118.19946 | 43000 ft | 506 kts | 342° |
| 2026-04-29 11:03 | 57.43359 | -118.24026 | 43000 ft | 506 kts | 342° |
| 2026-04-29 11:04 | 57.50028 | -118.28136 | 43000 ft | 506 kts | 342° |
| 2026-04-29 11:04 | 57.56707 | -118.32265 | 43000 ft | 506 kts | 342° |
| 2026-04-29 11:05 | 57.63332 | -118.36375 | 43000 ft | 505 kts | 342° |
| 2026-04-29 11:05 | 57.69963 | -118.40510 | 43000 ft | 504 kts | 342° |
| 2026-04-29 11:06 | 57.76602 | -118.44664 | 43000 ft | 503 kts | 342° |
| 2026-04-29 11:06 | 57.83239 | -118.48830 | 43000 ft | 502 kts | 342° |
| 2026-04-29 11:07 | 57.89829 | -118.52984 | 43000 ft | 501 kts | 342° |
| 2026-04-29 11:07 | 57.96429 | -118.57162 | 43000 ft | 501 kts | 342° |
| 2026-04-29 11:08 | 58.02999 | -118.61334 | 43000 ft | 500 kts | 342° |
| 2026-04-29 11:08 | 58.09552 | -118.65516 | 43000 ft | 500 kts | 341° |
| 2026-04-29 11:09 | 58.16118 | -118.69718 | 43000 ft | 499 kts | 341° |
| 2026-04-29 11:09 | 58.22669 | -118.73930 | 43000 ft | 499 kts | 341° |
| 2026-04-29 11:10 | 58.29244 | -118.78172 | 43000 ft | 498 kts | 341° |
| 2026-04-29 11:10 | 58.35770 | -118.82400 | 43000 ft | 498 kts | 341° |
| 2026-04-29 11:11 | 58.42337 | -118.86671 | 43000 ft | 498 kts | 341° |
| 2026-04-29 11:11 | 58.48847 | -118.90922 | 43000 ft | 498 kts | 341° |
| 2026-04-29 11:12 | 58.55408 | -118.95223 | 43000 ft | 497 kts | 341° |
| 2026-04-29 11:12 | 58.61907 | -118.99500 | 43000 ft | 497 kts | 341° |
| 2026-04-29 11:13 | 58.68437 | -119.03813 | 43000 ft | 497 kts | 341° |
| 2026-04-29 11:13 | 58.74974 | -119.08152 | 43000 ft | 497 kts | 341° |
| 2026-04-29 11:14 | 58.81466 | -119.12473 | 43000 ft | 497 kts | 341° |
| 2026-04-29 11:14 | 58.88012 | -119.16851 | 43000 ft | 497 kts | 341° |
| 2026-04-29 11:15 | 58.94529 | -119.21226 | 43000 ft | 496 kts | 341° |
| 2026-04-29 11:15 | 59.00995 | -119.25584 | 43000 ft | 496 kts | 341° |
| 2026-04-29 11:16 | 59.07514 | -119.29996 | 43000 ft | 496 kts | 341° |
| 2026-04-29 11:16 | 59.14026 | -119.34419 | 43000 ft | 496 kts | 341° |
| 2026-04-29 11:17 | 59.20540 | -119.38862 | 43000 ft | 496 kts | 341° |
| 2026-04-29 11:17 | 59.27032 | -119.43310 | 43000 ft | 496 kts | 341° |
| 2026-04-29 11:18 | 59.33530 | -119.47778 | 43000 ft | 496 kts | 341° |
| 2026-04-29 11:18 | 59.40028 | -119.52265 | 43000 ft | 496 kts | 341° |
| 2026-04-29 11:19 | 59.46519 | -119.56765 | 43000 ft | 496 kts | 341° |
| 2026-04-29 11:19 | 59.53037 | -119.61304 | 43000 ft | 496 kts | 341° |
| 2026-04-29 11:20 | 59.59559 | -119.65864 | 43000 ft | 496 kts | 340° |
| 2026-04-29 11:20 | 59.66062 | -119.70427 | 43000 ft | 496 kts | 340° |
| 2026-04-29 11:21 | 59.72562 | -119.75008 | 43000 ft | 496 kts | 340° |
| 2026-04-29 11:21 | 59.79018 | -119.79578 | 43000 ft | 496 kts | 340° |
| 2026-04-29 11:22 | 59.85513 | -119.84193 | 43000 ft | 496 kts | 340° |
| 2026-04-29 11:22 | 59.92022 | -119.88837 | 43000 ft | 496 kts | 340° |
| 2026-04-29 11:23 | 59.98489 | -119.93473 | 43000 ft | 496 kts | 340° |
| 2026-04-29 11:23 | 60.04987 | -119.98149 | 43000 ft | 496 kts | 340° |
| 2026-04-29 11:24 | 60.11468 | -120.02832 | 43000 ft | 496 kts | 340° |
| 2026-04-29 11:24 | 60.17968 | -120.07549 | 43000 ft | 496 kts | 340° |
| 2026-04-29 11:25 | 60.24436 | -120.12263 | 43000 ft | 497 kts | 340° |
| 2026-04-29 11:25 | 60.30962 | -120.17036 | 43000 ft | 497 kts | 340° |
| 2026-04-29 11:26 | 60.40673 | -120.24184 | 43000 ft | 497 kts | 340° |
| 2026-04-29 11:26 | 60.47168 | -120.28986 | 43000 ft | 497 kts | 340° |
| 2026-04-29 11:27 | 60.53637 | -120.33790 | 43000 ft | 497 kts | 340° |
| 2026-04-29 11:27 | 60.60119 | -120.38625 | 43000 ft | 497 kts | 340° |
| 2026-04-29 11:28 | 60.66589 | -120.43472 | 43000 ft | 497 kts | 340° |
| 2026-04-29 11:28 | 60.73084 | -120.48360 | 43000 ft | 497 kts | 340° |
| 2026-04-29 11:29 | 60.79559 | -120.53252 | 43000 ft | 497 kts | 340° |
| 2026-04-29 11:29 | 60.86030 | -120.58164 | 43000 ft | 497 kts | 340° |
| 2026-04-29 11:30 | 60.92511 | -120.63103 | 43001 ft | 497 kts | 340° |
| 2026-04-29 11:30 | 60.98996 | -120.68064 | 43001 ft | 497 kts | 339° |
| 2026-04-29 11:31 | 61.05500 | -120.73066 | 43001 ft | 497 kts | 339° |
| 2026-04-29 11:31 | 61.11934 | -120.78038 | 43001 ft | 498 kts | 339° |
| 2026-04-29 11:32 | 61.18421 | -120.83067 | 43001 ft | 498 kts | 339° |
| 2026-04-29 11:32 | 61.24916 | -120.88127 | 43001 ft | 498 kts | 339° |
| 2026-04-29 11:33 | 61.31395 | -120.93198 | 43001 ft | 498 kts | 339° |
| 2026-04-29 11:33 | 61.37860 | -120.98277 | 43001 ft | 498 kts | 339° |
| 2026-04-29 11:34 | 61.44372 | -121.03419 | 43001 ft | 498 kts | 339° |
| 2026-04-29 11:34 | 61.50814 | -121.08528 | 43001 ft | 498 kts | 339° |
| 2026-04-29 11:35 | 61.57317 | -121.13706 | 43001 ft | 498 kts | 339° |
| 2026-04-29 11:35 | 61.63765 | -121.18865 | 43001 ft | 498 kts | 339° |
| 2026-04-29 11:36 | 61.70258 | -121.24084 | 43001 ft | 498 kts | 339° |
| 2026-04-29 11:36 | 61.76687 | -121.29356 | 42990 ft | 498 kts | 335° |
| 2026-04-29 11:37 | 61.82583 | -121.37053 | 43000 ft | 498 kts | 327° |
| 2026-04-29 11:37 | 61.88349 | -121.45049 | 43001 ft | 498 kts | 327° |
| 2026-04-29 11:38 | 61.94144 | -121.53138 | 43001 ft | 498 kts | 327° |
| 2026-04-29 11:38 | 61.99935 | -121.61258 | 43001 ft | 498 kts | 327° |
| 2026-04-29 11:39 | 62.05727 | -121.69418 | 43001 ft | 498 kts | 326° |
| 2026-04-29 11:39 | 62.11504 | -121.77594 | 43001 ft | 499 kts | 326° |
| 2026-04-29 11:40 | 62.17249 | -121.85765 | 43001 ft | 499 kts | 326° |
| 2026-04-29 11:40 | 62.23020 | -121.94010 | 43001 ft | 499 kts | 326° |
| 2026-04-29 11:41 | 62.28793 | -122.02296 | 43001 ft | 499 kts | 326° |
| 2026-04-29 11:41 | 62.34544 | -122.10591 | 43001 ft | 499 kts | 326° |
| 2026-04-29 11:42 | 62.40337 | -122.18982 | 43001 ft | 499 kts | 326° |
| 2026-04-29 11:42 | 62.46079 | -122.27341 | 43000 ft | 499 kts | 326° |
| 2026-04-29 11:43 | 62.51827 | -122.35748 | 43000 ft | 499 kts | 326° |
| 2026-04-29 11:43 | 62.57567 | -122.44181 | 43000 ft | 499 kts | 326° |
| 2026-04-29 11:44 | 62.63321 | -122.52680 | 43000 ft | 500 kts | 326° |
| 2026-04-29 11:44 | 62.69069 | -122.61208 | 43000 ft | 500 kts | 326° |
| 2026-04-29 11:45 | 62.74791 | -122.69737 | 43000 ft | 500 kts | 325° |
| 2026-04-29 11:45 | 62.80523 | -122.78324 | 43000 ft | 500 kts | 325° |
| 2026-04-29 11:46 | 62.86237 | -122.86923 | 43000 ft | 500 kts | 325° |
| 2026-04-29 11:46 | 62.92008 | -122.95651 | 43000 ft | 500 kts | 325° |
| 2026-04-29 11:47 | 62.97698 | -123.04298 | 43000 ft | 500 kts | 325° |
| 2026-04-29 11:47 | 63.03419 | -123.13037 | 43000 ft | 500 kts | 325° |
| 2026-04-29 11:48 | 63.09149 | -123.21828 | 43000 ft | 500 kts | 325° |
| 2026-04-29 11:48 | 63.14830 | -123.30589 | 43000 ft | 500 kts | 325° |
| 2026-04-29 11:49 | 63.20583 | -123.39361 | 43000 ft | 500 kts | 327° |
| 2026-04-29 11:49 | 63.26357 | -123.47884 | 43001 ft | 501 kts | 327° |
| 2026-04-29 11:50 | 63.32154 | -123.56496 | 43001 ft | 501 kts | 327° |
| 2026-04-29 11:50 | 63.37926 | -123.65113 | 43001 ft | 501 kts | 326° |
| 2026-04-29 11:51 | 63.43723 | -123.73811 | 43001 ft | 501 kts | 326° |
| 2026-04-29 11:51 | 63.49477 | -123.82491 | 43001 ft | 501 kts | 326° |
| 2026-04-29 11:52 | 63.55270 | -123.91270 | 43001 ft | 501 kts | 326° |
| 2026-04-29 11:52 | 63.61040 | -124.00059 | 43001 ft | 501 kts | 326° |
| 2026-04-29 11:53 | 63.66789 | -124.08858 | 43001 ft | 501 kts | 326° |
| 2026-04-29 11:53 | 63.72565 | -124.17743 | 43001 ft | 501 kts | 326° |
| 2026-04-29 11:54 | 63.78290 | -124.26592 | 43001 ft | 502 kts | 326° |
| 2026-04-29 11:54 | 63.84073 | -124.35580 | 43001 ft | 502 kts | 326° |
| 2026-04-29 11:55 | 63.89806 | -124.44532 | 43001 ft | 502 kts | 326° |
| 2026-04-29 11:55 | 63.95541 | -124.53535 | 43001 ft | 502 kts | 326° |
| 2026-04-29 11:56 | 64.01288 | -124.62601 | 43001 ft | 502 kts | 326° |
| 2026-04-29 11:56 | 64.07046 | -124.71732 | 43001 ft | 502 kts | 325° |
| 2026-04-29 11:57 | 64.12761 | -124.80839 | 43001 ft | 502 kts | 325° |
| 2026-04-29 11:57 | 64.18505 | -124.90044 | 43001 ft | 502 kts | 325° |
| 2026-04-29 11:58 | 64.24200 | -124.99215 | 43001 ft | 502 kts | 325° |
| 2026-04-29 11:58 | 64.29916 | -125.08465 | 43001 ft | 502 kts | 325° |
| 2026-04-29 11:59 | 64.35663 | -125.17815 | 43001 ft | 503 kts | 325° |
| 2026-04-29 11:59 | 64.41335 | -125.27092 | 43001 ft | 503 kts | 325° |
| 2026-04-29 12:00 | 64.47048 | -125.36485 | 43001 ft | 503 kts | 325° |
| 2026-04-29 12:00 | 64.52758 | -125.45919 | 43001 ft | 503 kts | 325° |
| 2026-04-29 12:01 | 64.58430 | -125.55344 | 43001 ft | 503 kts | 325° |
| 2026-04-29 12:01 | 64.64127 | -125.64859 | 43001 ft | 503 kts | 325° |
| 2026-04-29 12:02 | 64.69810 | -125.74398 | 43001 ft | 503 kts | 324° |
| 2026-04-29 12:02 | 64.75500 | -125.84000 | 43001 ft | 503 kts | 324° |
| 2026-04-29 12:03 | 64.81150 | -125.93589 | 43001 ft | 503 kts | 324° |
| 2026-04-29 12:03 | 64.86834 | -126.03284 | 43001 ft | 503 kts | 324° |
| 2026-04-29 12:04 | 64.92501 | -126.13000 | 43001 ft | 503 kts | 324° |
| 2026-04-29 12:04 | 64.98173 | -126.22778 | 43001 ft | 503 kts | 324° |
| 2026-04-29 12:05 | 65.03839 | -126.32599 | 43001 ft | 504 kts | 324° |
| 2026-04-29 12:05 | 65.09470 | -126.42409 | 43001 ft | 504 kts | 324° |
| 2026-04-29 12:06 | 65.15096 | -126.52270 | 43001 ft | 504 kts | 324° |
| 2026-04-29 12:06 | 65.20753 | -126.62236 | 43001 ft | 504 kts | 324° |
| 2026-04-29 12:07 | 65.26398 | -126.72237 | 43001 ft | 504 kts | 323° |
| 2026-04-29 12:07 | 65.31924 | -126.82533 | 43001 ft | 504 kts | 322° |
| 2026-04-29 12:08 | 65.37427 | -126.92856 | 43001 ft | 504 kts | 322° |
| 2026-04-29 12:08 | 65.42943 | -127.03256 | 43001 ft | 504 kts | 322° |
| 2026-04-29 12:09 | 65.48459 | -127.13718 | 43001 ft | 504 kts | 322° |
| 2026-04-29 12:09 | 65.53957 | -127.24202 | 43001 ft | 504 kts | 322° |
| 2026-04-29 12:10 | 65.59454 | -127.34744 | 43001 ft | 504 kts | 322° |
| 2026-04-29 12:10 | 65.64927 | -127.45301 | 43001 ft | 504 kts | 322° |
| 2026-04-29 12:11 | 65.70431 | -127.55968 | 43001 ft | 504 kts | 322° |
| 2026-04-29 12:11 | 65.75916 | -127.66662 | 43001 ft | 505 kts | 321° |
| 2026-04-29 12:12 | 65.81413 | -127.77441 | 43001 ft | 505 kts | 321° |
| 2026-04-29 12:12 | 65.86852 | -127.88167 | 43001 ft | 505 kts | 321° |
| 2026-04-29 12:13 | 65.92351 | -127.99070 | 43001 ft | 505 kts | 321° |
| 2026-04-29 12:13 | 65.97791 | -128.09921 | 43001 ft | 505 kts | 321° |
| 2026-04-29 12:14 | 66.03235 | -128.20842 | 43001 ft | 505 kts | 321° |
| 2026-04-29 12:14 | 66.08685 | -128.31833 | 43001 ft | 505 kts | 321° |
| 2026-04-29 12:15 | 66.14091 | -128.42801 | 43001 ft | 505 kts | 321° |
| 2026-04-29 12:15 | 66.19569 | -128.53976 | 43001 ft | 505 kts | 321° |
| 2026-04-29 12:16 | 66.24899 | -128.65312 | 42999 ft | 505 kts | 315° |
| 2026-04-29 12:16 | 66.29915 | -128.77457 | 43001 ft | 505 kts | 315° |
| 2026-04-29 12:17 | 66.34972 | -128.89732 | 43001 ft | 505 kts | 315° |
| 2026-04-29 12:17 | 66.40013 | -129.02040 | 43001 ft | 505 kts | 315° |
| 2026-04-29 12:18 | 66.45020 | -129.14339 | 43001 ft | 506 kts | 315° |
| 2026-04-29 12:18 | 66.50045 | -129.26749 | 43001 ft | 506 kts | 315° |
| 2026-04-29 12:19 | 66.55045 | -129.39183 | 43001 ft | 506 kts | 315° |
| 2026-04-29 12:19 | 66.60038 | -129.51662 | 43001 ft | 506 kts | 315° |
| 2026-04-29 12:20 | 66.65015 | -129.64182 | 43001 ft | 506 kts | 315° |
| 2026-04-29 12:20 | 66.69991 | -129.76776 | 43001 ft | 506 kts | 314° |
| 2026-04-29 12:21 | 66.74967 | -129.89445 | 43001 ft | 506 kts | 314° |
| 2026-04-29 12:21 | 66.79942 | -130.02191 | 43001 ft | 506 kts | 314° |
| 2026-04-29 12:22 | 66.84871 | -130.14893 | 43001 ft | 506 kts | 314° |
| 2026-04-29 12:22 | 66.89827 | -130.27742 | 43001 ft | 506 kts | 314° |
| 2026-04-29 12:23 | 66.94743 | -130.40575 | 43001 ft | 506 kts | 314° |
| 2026-04-29 12:23 | 66.99654 | -130.53464 | 42999 ft | 503 kts | 314° |
| 2026-04-29 12:24 | 67.04511 | -130.66293 | 42999 ft | 499 kts | 314° |
| 2026-04-29 12:24 | 67.09325 | -130.79085 | 42999 ft | 496 kts | 314° |
| 2026-04-29 12:25 | 67.14108 | -130.91878 | 42999 ft | 492 kts | 314° |
| 2026-04-29 12:26 | 67.21197 | -131.10979 | 42999 ft | 488 kts | 314° |
| 2026-04-29 12:26 | 67.25867 | -131.23653 | 42999 ft | 486 kts | 314° |
| 2026-04-29 12:27 | 67.30512 | -131.36342 | 43000 ft | 484 kts | 314° |
| 2026-04-29 12:27 | 67.35145 | -131.49069 | 43000 ft | 482 kts | 314° |
| 2026-04-29 12:28 | 67.39746 | -131.61786 | 43000 ft | 480 kts | 314° |
| 2026-04-29 12:28 | 67.44303 | -131.74461 | 43000 ft | 478 kts | 313° |
| 2026-04-29 12:29 | 67.48845 | -131.87166 | 43000 ft | 477 kts | 313° |
| 2026-04-29 12:29 | 67.53339 | -131.99815 | 43000 ft | 476 kts | 313° |
| 2026-04-29 12:30 | 67.57832 | -132.12540 | 43000 ft | 474 kts | 313° |
| 2026-04-29 12:30 | 67.62320 | -132.25322 | 43000 ft | 473 kts | 313° |
| 2026-04-29 12:31 | 67.66782 | -132.38112 | 43000 ft | 473 kts | 313° |
| 2026-04-29 12:31 | 67.71203 | -132.50858 | 43000 ft | 472 kts | 313° |
| 2026-04-29 12:32 | 67.75638 | -132.63722 | 43000 ft | 471 kts | 313° |
| 2026-04-29 12:32 | 67.80028 | -132.76533 | 43000 ft | 470 kts | 312° |
| 2026-04-29 12:33 | 67.84431 | -132.89462 | 43000 ft | 470 kts | 311° |
| 2026-04-29 12:33 | 67.88787 | -133.02330 | 43001 ft | 469 kts | 312° |
| 2026-04-29 12:34 | 67.93156 | -133.15317 | 43001 ft | 469 kts | 312° |
| 2026-04-29 12:34 | 67.97510 | -133.28331 | 43001 ft | 468 kts | 312° |
| 2026-04-29 12:35 | 68.01825 | -133.41315 | 43001 ft | 468 kts | 312° |
| 2026-04-29 12:35 | 68.06152 | -133.54413 | 43001 ft | 468 kts | 312° |
| 2026-04-29 12:36 | 68.10477 | -133.67583 | 43001 ft | 467 kts | 311° |
| 2026-04-29 12:36 | 68.14762 | -133.80714 | 43001 ft | 467 kts | 311° |
| 2026-04-29 12:37 | 68.19109 | -133.93867 | 42984 ft | 467 kts | 317° |
| 2026-04-29 12:37 | 68.21821 | -133.98557 | 43011 ft | 465 kts | 338° |
| 2026-04-29 12:37 | 68.24953 | -134.00415 | 43013 ft | 463 kts | 358° |
| 2026-04-29 12:37 | 68.28107 | -133.99249 | 43016 ft | 462 kts | 18° |
| 2026-04-29 12:38 | 68.30904 | -133.95218 | 43018 ft | 461 kts | 39° |
| 2026-04-29 12:38 | 68.33012 | -133.88777 | 43018 ft | 460 kts | 59° |
| 2026-04-29 12:38 | 68.34143 | -133.80852 | 43018 ft | 459 kts | 79° |
| 2026-04-29 12:38 | 68.34177 | -133.72302 | 43019 ft | 457 kts | 100° |
| 2026-04-29 12:39 | 68.33146 | -133.64197 | 43042 ft | 456 kts | 115° |
| 2026-04-29 12:39 | 68.30512 | -133.48651 | 42979 ft | 458 kts | 105° |
| 2026-04-29 12:39 | 68.30167 | -133.40311 | 43018 ft | 456 kts | 85° |
| 2026-04-29 12:40 | 68.30806 | -133.31882 | 43044 ft | 455 kts | 78° |
| 2026-04-29 12:40 | 68.31064 | -133.23486 | 43033 ft | 454 kts | 89° |
| 2026-04-29 12:40 | 68.31258 | -133.14920 | 43005 ft | 455 kts | 86° |
| 2026-04-29 12:41 | 68.31674 | -132.97911 | 43002 ft | 456 kts | 86° |
| 2026-04-29 12:41 | 68.32076 | -132.80879 | 43001 ft | 457 kts | 86° |
| 2026-04-29 12:42 | 68.32460 | -132.63844 | 43001 ft | 458 kts | 86° |
| 2026-04-29 12:42 | 68.32831 | -132.46619 | 43001 ft | 459 kts | 86° |
| 2026-04-29 12:43 | 68.33182 | -132.29494 | 43001 ft | 460 kts | 87° |
| 2026-04-29 12:43 | 68.33516 | -132.12294 | 43001 ft | 460 kts | 87° |
| 2026-04-29 12:44 | 68.33833 | -131.95097 | 43001 ft | 461 kts | 87° |
| 2026-04-29 12:44 | 68.34132 | -131.77866 | 43001 ft | 461 kts | 87° |
| 2026-04-29 12:45 | 68.34417 | -131.60466 | 43001 ft | 462 kts | 87° |
| 2026-04-29 12:45 | 68.34682 | -131.43170 | 43001 ft | 462 kts | 87° |
| 2026-04-29 12:46 | 68.34928 | -131.25909 | 43001 ft | 463 kts | 88° |
| 2026-04-29 12:46 | 68.35157 | -131.08591 | 43001 ft | 463 kts | 88° |
| 2026-04-29 12:47 | 68.35368 | -130.91223 | 43001 ft | 463 kts | 88° |
| 2026-04-29 12:47 | 68.35562 | -130.73843 | 43001 ft | 464 kts | 88° |
| 2026-04-29 12:48 | 68.35738 | -130.56455 | 43001 ft | 464 kts | 88° |
| 2026-04-29 12:48 | 68.35895 | -130.39125 | 43001 ft | 464 kts | 88° |
| 2026-04-29 12:49 | 68.36034 | -130.21745 | 43001 ft | 465 kts | 89° |
| 2026-04-29 12:49 | 68.36156 | -130.04280 | 43001 ft | 465 kts | 89° |
| 2026-04-29 12:50 | 68.36260 | -129.86810 | 43001 ft | 465 kts | 89° |
| 2026-04-29 12:50 | 68.36346 | -129.69395 | 43001 ft | 465 kts | 89° |
| 2026-04-29 12:51 | 68.36413 | -129.51881 | 43001 ft | 465 kts | 89° |
| 2026-04-29 12:51 | 68.36462 | -129.34409 | 43001 ft | 466 kts | 90° |
| 2026-04-29 12:52 | 68.36493 | -129.17000 | 43001 ft | 466 kts | 90° |
| 2026-04-29 12:52 | 68.36504 | -128.99443 | 43001 ft | 466 kts | 90° |
| 2026-04-29 12:53 | 68.36499 | -128.82013 | 43001 ft | 466 kts | 90° |
| 2026-04-29 12:53 | 68.36475 | -128.64546 | 43001 ft | 466 kts | 90° |
| 2026-04-29 12:54 | 68.36432 | -128.47012 | 43001 ft | 466 kts | 90° |
| 2026-04-29 12:54 | 68.36372 | -128.29475 | 43001 ft | 467 kts | 91° |
| 2026-04-29 12:55 | 68.36292 | -128.12028 | 43001 ft | 467 kts | 91° |
| 2026-04-29 12:55 | 68.36195 | -127.94553 | 43001 ft | 467 kts | 91° |
| 2026-04-29 12:56 | 68.36079 | -127.77026 | 43001 ft | 467 kts | 91° |
| 2026-04-29 12:56 | 68.35945 | -127.59512 | 43001 ft | 467 kts | 91° |
| 2026-04-29 12:57 | 68.35792 | -127.42017 | 43001 ft | 467 kts | 91° |
| 2026-04-29 12:57 | 68.35622 | -127.24553 | 43001 ft | 467 kts | 92° |
| 2026-04-29 12:58 | 68.35432 | -127.06982 | 43001 ft | 467 kts | 92° |
| 2026-04-29 12:58 | 68.35225 | -126.89517 | 43001 ft | 468 kts | 92° |
| 2026-04-29 12:59 | 68.34998 | -126.71951 | 43001 ft | 468 kts | 92° |
| 2026-04-29 12:59 | 68.34755 | -126.54546 | 43001 ft | 468 kts | 92° |
| 2026-04-29 13:00 | 68.34491 | -126.36942 | 43001 ft | 468 kts | 92° |
| 2026-04-29 13:00 | 68.34208 | -126.19350 | 43001 ft | 468 kts | 92° |
| 2026-04-29 13:01 | 68.33909 | -126.01836 | 43001 ft | 468 kts | 92° |
| 2026-04-29 13:01 | 68.33590 | -125.84321 | 43001 ft | 468 kts | 92° |
| 2026-04-29 13:02 | 68.33253 | -125.66766 | 43001 ft | 468 kts | 92° |
| 2026-04-29 13:02 | 68.32898 | -125.49314 | 43001 ft | 468 kts | 92° |
| 2026-04-29 13:03 | 68.32525 | -125.31816 | 43001 ft | 468 kts | 94° |
| 2026-04-29 13:03 | 68.32134 | -125.14307 | 43001 ft | 469 kts | 94° |
| 2026-04-29 13:04 | 68.31723 | -124.96810 | 43001 ft | 469 kts | 94° |
| 2026-04-29 13:04 | 68.31293 | -124.79309 | 43001 ft | 469 kts | 94° |
| 2026-04-29 13:05 | 68.30848 | -124.61872 | 43001 ft | 469 kts | 94° |
| 2026-04-29 13:05 | 68.30381 | -124.44338 | 43001 ft | 469 kts | 94° |
| 2026-04-29 13:06 | 68.29896 | -124.26844 | 43001 ft | 469 kts | 95° |
| 2026-04-29 13:06 | 68.29394 | -124.09378 | 43001 ft | 469 kts | 95° |
| 2026-04-29 13:07 | 68.28873 | -123.91847 | 43001 ft | 469 kts | 95° |
| 2026-04-29 13:07 | 68.28333 | -123.74416 | 43001 ft | 469 kts | 95° |
| 2026-04-29 13:08 | 68.27775 | -123.56913 | 43001 ft | 469 kts | 95° |
| 2026-04-29 13:08 | 68.27200 | -123.39479 | 43001 ft | 469 kts | 95° |
| 2026-04-29 13:09 | 68.26605 | -123.22011 | 43001 ft | 469 kts | 95° |
| 2026-04-29 13:09 | 68.25993 | -123.04612 | 43000 ft | 470 kts | 95° |
| 2026-04-29 13:10 | 68.25362 | -122.87174 | 43001 ft | 470 kts | 95° |
| 2026-04-29 13:10 | 68.24711 | -122.69661 | 43001 ft | 470 kts | 95° |
| 2026-04-29 13:11 | 68.24042 | -122.52247 | 43001 ft | 470 kts | 95° |
| 2026-04-29 13:11 | 68.23354 | -122.34801 | 43001 ft | 470 kts | 96° |
| 2026-04-29 13:12 | 68.22649 | -122.17382 | 43001 ft | 470 kts | 96° |
| 2026-04-29 13:12 | 68.21925 | -121.99933 | 43001 ft | 470 kts | 96° |
| 2026-04-29 13:13 | 68.21187 | -121.82636 | 43001 ft | 470 kts | 96° |
| 2026-04-29 13:13 | 68.20425 | -121.65211 | 43001 ft | 470 kts | 96° |
| 2026-04-29 13:14 | 68.19646 | -121.47772 | 43001 ft | 470 kts | 96° |
| 2026-04-29 13:14 | 68.18853 | -121.30489 | 43001 ft | 470 kts | 97° |
| 2026-04-29 13:15 | 68.18034 | -121.13062 | 43000 ft | 470 kts | 97° |
| 2026-04-29 13:15 | 68.17199 | -120.95652 | 43000 ft | 470 kts | 97° |
| 2026-04-29 13:16 | 68.16349 | -120.78345 | 43000 ft | 471 kts | 97° |
| 2026-04-29 13:16 | 68.15483 | -120.61073 | 43000 ft | 471 kts | 97° |
| 2026-04-29 13:17 | 68.14591 | -120.43690 | 43000 ft | 471 kts | 97° |
| 2026-04-29 13:17 | 68.13684 | -120.26356 | 43000 ft | 471 kts | 98° |
| 2026-04-29 13:18 | 68.12758 | -120.09022 | 43001 ft | 471 kts | 98° |
| 2026-04-29 13:18 | 68.11816 | -119.91753 | 43001 ft | 471 kts | 98° |
| 2026-04-29 13:19 | 68.10859 | -119.74540 | 43001 ft | 471 kts | 98° |
| 2026-04-29 13:19 | 68.09878 | -119.57227 | 43001 ft | 471 kts | 98° |
| 2026-04-29 13:20 | 68.08881 | -119.39992 | 43001 ft | 471 kts | 98° |
| 2026-04-29 13:20 | 68.07868 | -119.22786 | 43001 ft | 471 kts | 99° |
| 2026-04-29 13:21 | 68.06834 | -119.05535 | 43001 ft | 471 kts | 99° |
| 2026-04-29 13:21 | 68.05779 | -118.88260 | 43001 ft | 471 kts | 99° |
| 2026-04-29 13:22 | 68.04709 | -118.71053 | 43001 ft | 472 kts | 99° |
| 2026-04-29 13:22 | 68.03622 | -118.53876 | 43001 ft | 472 kts | 99° |
| 2026-04-29 13:23 | 68.02536 | -118.36706 | 42997 ft | 472 kts | 96° |
| 2026-04-29 13:23 | 68.02775 | -118.28063 | 42888 ft | 469 kts | 61° |
| 2026-04-29 13:23 | 68.05302 | -118.26572 | 42732 ft | 420 kts | 292° |
| 2026-04-29 13:23 | 68.04152 | -118.31715 | 42502 ft | 386 kts | 189° |
| 2026-04-29 13:24 | 68.02048 | -118.35279 | 43594 ft | 354 kts | 238° |
| 2026-04-29 13:24 | 68.01201 | -118.41441 | 43378 ft | 359 kts | 266° |
| 2026-04-29 13:24 | 68.01537 | -118.47936 | 43414 ft | 356 kts | 294° |
| 2026-04-29 13:24 | 68.02759 | -118.52928 | 43371 ft | 362 kts | 309° |
| 2026-04-29 13:25 | 68.05975 | -118.64184 | 43026 ft | 391 kts | 314° |
| 2026-04-29 13:25 | 68.07669 | -118.70013 | 43024 ft | 401 kts | 313° |
| 2026-04-29 13:26 | 68.09403 | -118.76000 | 43019 ft | 412 kts | 313° |
| 2026-04-29 13:26 | 68.11189 | -118.82182 | 43018 ft | 422 kts | 313° |
| 2026-04-29 13:26 | 68.14870 | -118.94997 | 43016 ft | 441 kts | 312° |
| 2026-04-29 13:27 | 68.18691 | -119.08395 | 43015 ft | 459 kts | 312° |
| 2026-04-29 13:27 | 68.22665 | -119.22422 | 43014 ft | 477 kts | 312° |
| 2026-04-29 13:28 | 68.26543 | -119.37379 | 42981 ft | 500 kts | 297° |
| 2026-04-29 13:28 | 68.27444 | -119.46583 | 43021 ft | 513 kts | 277° |
| 2026-04-29 13:28 | 68.27290 | -119.56277 | 43052 ft | 520 kts | 265° |
| 2026-04-29 13:29 | 68.27413 | -119.66174 | 43000 ft | 524 kts | 283° |
| 2026-04-29 13:29 | 68.28150 | -119.75831 | 42994 ft | 532 kts | 277° |
| 2026-04-29 13:29 | 68.28934 | -119.96072 | 43009 ft | 540 kts | 277° |
| 2026-04-29 13:30 | 68.29767 | -120.16370 | 43001 ft | 542 kts | 278° |
| 2026-04-29 13:30 | 68.30215 | -120.27401 | 42979 ft | 544 kts | 277° |
| 2026-04-29 13:31 | 68.31023 | -120.47897 | 43004 ft | 546 kts | 277° |
| 2026-04-29 13:31 | 68.31810 | -120.68433 | 43003 ft | 549 kts | 276° |
| 2026-04-29 13:32 | 68.32569 | -120.89087 | 43000 ft | 552 kts | 276° |
| 2026-04-29 13:32 | 68.33318 | -121.09920 | 43001 ft | 554 kts | 276° |
| 2026-04-29 13:33 | 68.34036 | -121.30771 | 43003 ft | 556 kts | 276° |
| 2026-04-29 13:33 | 68.34734 | -121.51795 | 43004 ft | 558 kts | 276° |
| 2026-04-29 13:34 | 68.35410 | -121.72912 | 42999 ft | 560 kts | 275° |
| 2026-04-29 13:34 | 68.36056 | -121.94044 | 43000 ft | 561 kts | 275° |
| 2026-04-29 13:35 | 68.36678 | -122.15324 | 43001 ft | 562 kts | 275° |
| 2026-04-29 13:35 | 68.37273 | -122.36462 | 43003 ft | 564 kts | 275° |
| 2026-04-29 13:36 | 68.37843 | -122.57813 | 43005 ft | 565 kts | 275° |
| 2026-04-29 13:36 | 68.38388 | -122.79165 | 42999 ft | 566 kts | 274° |
| 2026-04-29 13:37 | 68.38905 | -123.00542 | 43000 ft | 567 kts | 274° |
| 2026-04-29 13:37 | 68.39397 | -123.22096 | 43002 ft | 567 kts | 274° |
| 2026-04-29 13:38 | 68.39860 | -123.43469 | 43003 ft | 568 kts | 274° |
| 2026-04-29 13:38 | 68.40299 | -123.65067 | 43005 ft | 569 kts | 273° |
| 2026-04-29 13:39 | 68.40707 | -123.86585 | 42999 ft | 570 kts | 273° |
| 2026-04-29 13:39 | 68.41090 | -124.08115 | 43001 ft | 570 kts | 273° |
| 2026-04-29 13:40 | 68.41444 | -124.29742 | 43002 ft | 571 kts | 273° |
| 2026-04-29 13:40 | 68.41773 | -124.51421 | 43004 ft | 571 kts | 273° |
| 2026-04-29 13:41 | 68.42074 | -124.73078 | 42999 ft | 572 kts | 272° |
| 2026-04-29 13:41 | 68.42342 | -124.94589 | 43000 ft | 572 kts | 272° |
| 2026-04-29 13:42 | 68.42587 | -125.16360 | 43001 ft | 572 kts | 272° |
| 2026-04-29 13:42 | 68.42752 | -125.32762 | 42999 ft | 575 kts | 272° |
| 2026-04-29 13:43 | 68.42950 | -125.54727 | 43008 ft | 580 kts | 272° |
| 2026-04-29 13:43 | 68.43121 | -125.76781 | 42999 ft | 585 kts | 271° |
| 2026-04-29 13:44 | 68.43260 | -125.99110 | 43001 ft | 588 kts | 271° |
| 2026-04-29 13:44 | 68.43372 | -126.21478 | 43004 ft | 592 kts | 271° |
| 2026-04-29 13:45 | 68.43454 | -126.44052 | 43006 ft | 595 kts | 271° |
| 2026-04-29 13:45 | 68.43506 | -126.66571 | 43008 ft | 598 kts | 270° |
| 2026-04-29 13:46 | 68.43528 | -126.89314 | 43000 ft | 601 kts | 270° |
| 2026-04-29 13:46 | 68.43518 | -127.12135 | 43002 ft | 603 kts | 270° |
| 2026-04-29 13:47 | 68.43477 | -127.35178 | 43005 ft | 605 kts | 270° |
| 2026-04-29 13:47 | 68.43404 | -127.58076 | 43008 ft | 607 kts | 270° |
| 2026-04-29 13:48 | 68.43301 | -127.81217 | 42999 ft | 609 kts | 269° |
| 2026-04-29 13:48 | 68.43163 | -128.04324 | 43001 ft | 610 kts | 269° |
| 2026-04-29 13:49 | 68.42996 | -128.27548 | 43004 ft | 611 kts | 269° |
| 2026-04-29 13:49 | 68.42795 | -128.50690 | 43006 ft | 613 kts | 269° |
| 2026-04-29 13:50 | 68.42563 | -128.73987 | 42998 ft | 614 kts | 268° |
| 2026-04-29 13:50 | 68.42294 | -128.97186 | 43000 ft | 614 kts | 268° |
| 2026-04-29 13:51 | 68.41997 | -129.20428 | 42859 ft | 609 kts | 268° |
| 2026-04-29 13:51 | 68.41836 | -129.32016 | 41696 ft | 604 kts | 268° |
| 2026-04-29 13:51 | 68.41670 | -129.43427 | 40615 ft | 612 kts | 268° |
| 2026-04-29 13:52 | 68.41492 | -129.55061 | 39569 ft | 613 kts | 268° |
| 2026-04-29 13:52 | 68.41308 | -129.66586 | 38520 ft | 611 kts | 266° |
| 2026-04-29 13:52 | 68.41117 | -129.78154 | 37438 ft | 608 kts | 266° |
| 2026-04-29 13:52 | 68.40918 | -129.89601 | 36376 ft | 604 kts | 266° |
| 2026-04-29 13:53 | 68.40710 | -130.01050 | 35529 ft | 599 kts | 266° |
| 2026-04-29 13:53 | 68.40500 | -130.12324 | 34787 ft | 594 kts | 266° |
| 2026-04-29 13:53 | 68.40287 | -130.23360 | 33383 ft | 587 kts | 266° |
| 2026-04-29 13:53 | 68.40065 | -130.34412 | 32395 ft | 580 kts | 266° |
| 2026-04-29 13:54 | 68.39841 | -130.45276 | 31427 ft | 573 kts | 266° |
| 2026-04-29 13:54 | 68.39611 | -130.56030 | 30472 ft | 566 kts | 266° |
| 2026-04-29 13:54 | 68.39377 | -130.66689 | 29526 ft | 559 kts | 265° |
| 2026-04-29 13:54 | 68.39140 | -130.77235 | 28575 ft | 553 kts | 265° |
| 2026-04-29 13:55 | 68.38900 | -130.87492 | 27657 ft | 546 kts | 265° |
| 2026-04-29 13:55 | 68.38653 | -130.97835 | 26736 ft | 540 kts | 265° |
| 2026-04-29 13:55 | 68.38404 | -131.07979 | 25837 ft | 533 kts | 265° |
| 2026-04-29 13:55 | 68.38156 | -131.17906 | 24962 ft | 527 kts | 265° |
| 2026-04-29 13:56 | 68.37900 | -131.27859 | 24089 ft | 521 kts | 265° |
| 2026-04-29 13:56 | 68.37643 | -131.37595 | 23240 ft | 515 kts | 265° |
| 2026-04-29 13:56 | 68.37384 | -131.47229 | 22405 ft | 510 kts | 265° |
| 2026-04-29 13:56 | 68.37122 | -131.56799 | 21579 ft | 504 kts | 265° |
| 2026-04-29 13:57 | 68.36857 | -131.66278 | 20763 ft | 498 kts | 264° |
| 2026-04-29 13:57 | 68.36594 | -131.75531 | 19948 ft | 490 kts | 263° |
| 2026-04-29 13:57 | 68.36324 | -131.84744 | 19142 ft | 483 kts | 264° |
| 2026-04-29 13:57 | 68.36056 | -131.93736 | 18359 ft | 477 kts | 264° |
| 2026-04-29 13:58 | 68.35785 | -132.02708 | 17582 ft | 471 kts | 264° |
| 2026-04-29 13:58 | 68.35512 | -132.11586 | 16757 ft | 468 kts | 264° |
| 2026-04-29 13:58 | 68.35237 | -132.20332 | 15744 ft | 463 kts | 264° |
| 2026-04-29 13:58 | 68.34961 | -132.28992 | 14736 ft | 457 kts | 263° |
| 2026-04-29 13:59 | 68.34685 | -132.37553 | 13728 ft | 452 kts | 263° |
| 2026-04-29 13:59 | 68.34409 | -132.45921 | 12706 ft | 448 kts | 263° |
| 2026-04-29 13:59 | 68.34127 | -132.54352 | 11650 ft | 444 kts | 263° |
| 2026-04-29 13:59 | 68.33845 | -132.62631 | 10607 ft | 441 kts | 263° |
| 2026-04-29 14:00 | 68.33566 | -132.70872 | 9549 ft | 438 kts | 262° |
| 2026-04-29 14:00 | 68.33276 | -132.79134 | 8476 ft | 435 kts | 262° |
| 2026-04-29 14:00 | 68.32988 | -132.87224 | 7418 ft | 431 kts | 262° |
| 2026-04-29 14:00 | 68.32699 | -132.95287 | 6478 ft | 424 kts | 262° |
| 2026-04-29 14:01 | 68.32413 | -133.03177 | 5568 ft | 418 kts | 262° |
| 2026-04-29 14:01 | 68.32126 | -133.10936 | 4663 ft | 413 kts | 262° |
| 2026-04-29 14:01 | 68.31841 | -133.18533 | 3643 ft | 385 kts | 261° |
| 2026-04-29 14:01 | 68.31516 | -133.25417 | 2764 ft | 348 kts | 258° |
| 2026-04-29 14:02 | 68.31177 | -133.31892 | 2126 ft | 352 kts | 259° |
| 2026-04-29 14:02 | 68.30954 | -133.36058 | 1796 ft | 292 kts | 258° |
| 2026-04-29 14:02 | 68.30274 | -133.40506 | 856 ft | 227 kts | 255° |
| 2026-04-29 14:02 | 68.30431 | -133.44060 | 574 ft | 163 kts | 281° |
| 2026-04-29 14:03 | 68.30423 | -133.46826 | 252 ft | 127 kts | 264° |
| 2026-04-29 14:03 | 68.30368 | -133.48654 | 227 ft | 37 kts | 265° |
| 2026-04-29 14:03 | 68.30443 | -133.48802 | 230 ft | 20 kts | 358° |
| 2026-04-29 14:03 | 68.30453 | -133.48802 | 230 ft | 0 kts | 358° |